Tetien Trader — SYDU — position and weather

sailwx.info

Track history (hours):
 
Tides and Currents Weather Stations Pressure Air Temp Water Temp Dewpoint Dewpoint Depression Visibility Wind Speed Wind Dir Waves Ship Positions

Tetien Trader

Last reported at 2014-Dec-20 16:06 UTC. Time now 2014-Dec-20 17:58 UTC.
Position N 22°43' E 113°41'.

Length 225 m; draft 9.5 m.

Type: Cargo ship. MMSI: 239875000.

Date/timePositionNaut miles runAvg speedWind from/ knotsBaromVisibWave heightAir tempDewpointWater temp
2014-Dec-20 16:06N 22°43' E 113°41'0 0.2
2014-Dec-20 14:30N 22°43' E 113°41'0 0.0
2014-Dec-20 11:18N 22°43' E 113°41'0 0.2
2014-Dec-20 09:24N 22°43' E 113°41'0 0.1
2014-Dec-20 08:30N 22°42' E 113°41'0 0.0
2014-Dec-20 07:30N 22°42' E 113°41'0 0.0
2014-Dec-20 06:18N 22°42' E 113°41'0 0.1
2014-Dec-20 05:12N 22°42' E 113°41'0 0.2
2014-Dec-20 04:30N 22°42' E 113°41'0 0.2
2014-Dec-20 03:30N 22°43' E 113°41'0 0.0
2014-Dec-20 00:24N 22°43' E 113°41'0 0.2
2014-Dec-19 23:30N 22°42' E 113°41'0 0.1
2014-Dec-19 22:24N 22°42' E 113°41'0 0.0
2014-Dec-19 21:24N 22°42' E 113°41'0 0.0
2014-Dec-19 20:24N 22°42' E 113°41'0 0.0
2014-Dec-19 19:30N 22°42' E 113°41'0 0.0
2014-Dec-19 18:30N 22°42' E 113°41'0 0.0
2014-Dec-19 17:06N 22°42' E 113°41'0 0.1
2014-Dec-19 16:24N 22°43' E 113°41'0 0.1
2014-Dec-19 15:30N 22°43' E 113°41'0 0.1
2014-Dec-19 11:12N 22°43' E 113°41'0 0.2
2014-Dec-19 10:06N 22°43' E 113°41'0 0.2
2014-Dec-19 09:12N 22°43' E 113°41'0 0.0
2014-Dec-19 08:30N 22°43' E 113°41'0 0.0
2014-Dec-19 07:18N 22°43' E 113°41'0 0.0
2014-Dec-19 06:30N 22°43' E 113°41'0 0.0
2014-Dec-19 05:30N 22°43' E 113°41'0 0.0
2014-Dec-19 04:12N 22°43' E 113°41'0 0.1
2014-Dec-19 02:30N 22°43' E 113°41'0 0.2
2014-Dec-19 01:21N 22°43' E 113°41'2011.2
2014-Dec-18 23:33N 22°23' E 113°46'1312.8
2014-Dec-18 22:33N 22°10' E 113°47'5 4.7
2014-Dec-18 21:32N 22°06' E 113°50'4 3.6
2014-Dec-18 20:19N 22°04' E 113°54'0 0.0
2014-Dec-18 18:31N 22°04' E 113°54'0 0.0
2014-Dec-18 17:31N 22°04' E 113°54'0 0.0
2014-Dec-18 16:31N 22°04' E 113°54'0 0.1
2014-Dec-18 15:13N 22°04' E 113°54'0 0.0
2014-Dec-18 14:25N 22°04' E 113°54'0 0.0
2014-Dec-18 13:07N 22°04' E 113°54'0 0.0
2014-Dec-18 12:07N 22°04' E 113°54'0 0.1
2014-Dec-18 11:31N 22°04' E 113°54'0 0.1
2014-Dec-18 10:25N 22°04' E 113°54'0 0.0
2014-Dec-18 07:19N 22°04' E 113°54'0 0.0
2014-Dec-18 03:31N 22°04' E 113°54'0 0.0
2014-Dec-18 02:19N 22°04' E 113°54'0 0.1
2014-Dec-18 01:31N 22°04' E 113°54'0 0.1
2014-Dec-18 00:31N 22°04' E 113°54'2 2.1
2014-Dec-17 23:32N 22°05' E 113°56'1312.3
2014-Dec-17 22:29N 22°08' E 114°09'1213.2
2014-Dec-17 21:33N 22°08' E 114°23'1612.6
2014-Dec-17 20:17N 22°07' E 114°40'  
2014-Dec-13 23:23N 37°30' E 122°43'1113.4
2014-Dec-13 22:32N 37°38' E 122°35'1413.8
2014-Dec-13 21:32N 37°46' E 122°20'1413.3
2014-Dec-13 20:29N 37°50' E 122°03'1213.0
2014-Dec-13 19:33N 37°51' E 121°48'1313.0
2014-Dec-13 18:33N 37°54' E 121°32'1312.9
2014-Dec-13 17:33N 37°55' E 121°15'1413.1
2014-Dec-13 16:31N 37°58' E 120°59'1613.9
2014-Dec-13 15:22N 38°01' E 120°39'1214.1
2014-Dec-13 14:31N 38°02' E 120°24'1313.9
2014-Dec-13 13:33N 37°57' E 120°08'1211.7
2014-Dec-13 12:33N 37°45' E 120°08'9 9.2
2014-Dec-13 11:33N 37°39' E 120°17'2 1.9
2014-Dec-13 10:29N 37°39' E 120°19'0 0.0
2014-Dec-13 09:29N 37°39' E 120°19'0 0.0
2014-Dec-13 08:29N 37°39' E 120°19'0 0.0
2014-Dec-13 07:29N 37°39' E 120°19'0 0.0
2014-Dec-13 06:29N 37°39' E 120°19'0 0.0
2014-Dec-13 05:29N 37°39' E 120°19'0 0.0
2014-Dec-13 04:23N 37°39' E 120°19'0 0.0
2014-Dec-13 03:29N 37°39' E 120°19'0 0.0
2014-Dec-13 02:29N 37°39' E 120°19'0 0.0
2014-Dec-13 01:29N 37°39' E 120°19'0 0.0
2014-Dec-13 00:29N 37°39' E 120°19'0 0.0
2014-Dec-12 23:29N 37°39' E 120°19'0 0.0
2014-Dec-12 22:29N 37°39' E 120°19'0 0.0
2014-Dec-12 21:29N 37°39' E 120°19'0 0.0
2014-Dec-12 20:29N 37°39' E 120°19'0 0.0
2014-Dec-12 19:29N 37°39' E 120°19'0 0.0
2014-Dec-12 18:29N 37°39' E 120°19'0 0.0
2014-Dec-12 17:29N 37°39' E 120°19'0 0.0
2014-Dec-12 16:29N 37°39' E 120°19'0 0.0
2014-Dec-12 15:29N 37°39' E 120°19'0 0.0
2014-Dec-12 14:29N 37°39' E 120°19'0 0.0
2014-Dec-12 13:29N 37°39' E 120°19'0 0.0
2014-Dec-12 12:29N 37°39' E 120°19'0 0.0
2014-Dec-12 11:29N 37°39' E 120°19'0 0.0
2014-Dec-12 10:29N 37°39' E 120°19'0 0.0
2014-Dec-12 09:29N 37°39' E 120°19'0 0.0
2014-Dec-12 08:23N 37°39' E 120°19'0 0.0
2014-Dec-12 07:29N 37°39' E 120°19'0 0.0
2014-Dec-12 06:29N 37°39' E 120°19'0 0.0
2014-Dec-12 05:29N 37°39' E 120°19'0 0.0
2014-Dec-12 04:29N 37°39' E 120°19'0 0.0
2014-Dec-12 03:23N 37°39' E 120°19'0 0.0
2014-Dec-12 02:29N 37°39' E 120°19'0 0.0
2014-Dec-12 01:29N 37°39' E 120°19'0 0.0
2014-Dec-12 00:29N 37°39' E 120°19'0 0.0
2014-Dec-11 23:29N 37°39' E 120°19'0 0.0
2014-Dec-11 22:29N 37°39' E 120°19'0 0.0
2014-Dec-11 21:29N 37°39' E 120°19'0 0.0
2014-Dec-11 20:29N 37°39' E 120°19'0 0.0
2014-Dec-11 19:29N 37°39' E 120°19'0 0.0
2014-Dec-11 18:29N 37°39' E 120°19'0 0.0
2014-Dec-11 17:29N 37°39' E 120°19'0 0.0
2014-Dec-11 16:29N 37°39' E 120°19'0 0.0
2014-Dec-11 15:29N 37°39' E 120°19'0 0.0
2014-Dec-11 14:29N 37°39' E 120°19'0 0.0
2014-Dec-11 13:23N 37°39' E 120°19'0 0.0
2014-Dec-11 12:29N 37°39' E 120°19'0 0.0
2014-Dec-11 11:23N 37°39' E 120°19'0 0.0
2014-Dec-11 10:23N 37°39' E 120°19'0 0.0
2014-Dec-11 09:29N 37°39' E 120°19'0 0.0
2014-Dec-11 08:29N 37°39' E 120°19'0 0.0
2014-Dec-11 07:29N 37°39' E 120°19'0 0.0
2014-Dec-11 06:29N 37°39' E 120°19'0 0.0
2014-Dec-11 05:29N 37°39' E 120°19'0 0.0
2014-Dec-11 04:29N 37°39' E 120°19'0 0.0
2014-Dec-11 03:29N 37°39' E 120°19'0 0.0
2014-Dec-11 02:29N 37°39' E 120°19'0 0.0
2014-Dec-11 01:29N 37°39' E 120°19'0 0.0
2014-Dec-11 00:29N 37°39' E 120°19'0 0.0
2014-Dec-10 23:29N 37°39' E 120°19'0 0.0
2014-Dec-10 22:29N 37°39' E 120°19'0 0.0
2014-Dec-10 21:29N 37°39' E 120°19'0 0.0
2014-Dec-10 20:29N 37°39' E 120°19'0 0.0
2014-Dec-10 19:29N 37°39' E 120°19'0 0.0
2014-Dec-10 18:29N 37°39' E 120°19'0 0.0
2014-Dec-10 17:29N 37°39' E 120°19'0 0.0
2014-Dec-10 16:29N 37°39' E 120°19'  
Track history (hours):
 
Tides and Currents Weather Stations Pressure Air Temp Water Temp Dewpoint Dewpoint Depression Visibility Wind Speed Wind Dir Waves Ship Positions

Tetien Trader

Last reported at 2014-Dec-20 16:06 UTC. Time now 2014-Dec-20 17:58 UTC.
Position N 22°43' E 113°41'.

Length 225 m; draft 9.5 m.

Type: Cargo ship. MMSI: 239875000.

Date/timePositionNaut miles runAvg speedWind from/ knotsBaromVisibWave heightAir tempDewpointWater temp
2014-Dec-20 16:06N 22°43' E 113°41'0 0.2
2014-Dec-20 14:30N 22°43' E 113°41'0 0.0
2014-Dec-20 11:18N 22°43' E 113°41'0 0.2
2014-Dec-20 09:24N 22°43' E 113°41'0 0.1
2014-Dec-20 08:30N 22°42' E 113°41'0 0.0
2014-Dec-20 07:30N 22°42' E 113°41'0 0.0
2014-Dec-20 06:18N 22°42' E 113°41'0 0.1
2014-Dec-20 05:12N 22°42' E 113°41'0 0.2
2014-Dec-20 04:30N 22°42' E 113°41'0 0.2
2014-Dec-20 03:30N 22°43' E 113°41'0 0.0
2014-Dec-20 00:24N 22°43' E 113°41'0 0.2
2014-Dec-19 23:30N 22°42' E 113°41'0 0.1
2014-Dec-19 22:24N 22°42' E 113°41'0 0.0
2014-Dec-19 21:24N 22°42' E 113°41'0 0.0
2014-Dec-19 20:24N 22°42' E 113°41'0 0.0
2014-Dec-19 19:30N 22°42' E 113°41'0 0.0
2014-Dec-19 18:30N 22°42' E 113°41'0 0.0
2014-Dec-19 17:06N 22°42' E 113°41'0 0.1
2014-Dec-19 16:24N 22°43' E 113°41'0 0.1
2014-Dec-19 15:30N 22°43' E 113°41'0 0.1
2014-Dec-19 11:12N 22°43' E 113°41'0 0.2
2014-Dec-19 10:06N 22°43' E 113°41'0 0.2
2014-Dec-19 09:12N 22°43' E 113°41'0 0.0
2014-Dec-19 08:30N 22°43' E 113°41'0 0.0
2014-Dec-19 07:18N 22°43' E 113°41'0 0.0
2014-Dec-19 06:30N 22°43' E 113°41'0 0.0
2014-Dec-19 05:30N 22°43' E 113°41'0 0.0
2014-Dec-19 04:12N 22°43' E 113°41'0 0.1
2014-Dec-19 02:30N 22°43' E 113°41'0 0.2
2014-Dec-19 01:21N 22°43' E 113°41'2011.2
2014-Dec-18 23:33N 22°23' E 113°46'1312.8
2014-Dec-18 22:33N 22°10' E 113°47'5 4.7
2014-Dec-18 21:32N 22°06' E 113°50'4 3.6
2014-Dec-18 20:19N 22°04' E 113°54'0 0.0
2014-Dec-18 18:31N 22°04' E 113°54'0 0.0
2014-Dec-18 17:31N 22°04' E 113°54'0 0.0
2014-Dec-18 16:31N 22°04' E 113°54'0 0.1
2014-Dec-18 15:13N 22°04' E 113°54'0 0.0
2014-Dec-18 14:25N 22°04' E 113°54'0 0.0
2014-Dec-18 13:07N 22°04' E 113°54'0 0.0
2014-Dec-18 12:07N 22°04' E 113°54'0 0.1
2014-Dec-18 11:31N 22°04' E 113°54'0 0.1
2014-Dec-18 10:25N 22°04' E 113°54'0 0.0
2014-Dec-18 07:19N 22°04' E 113°54'0 0.0
2014-Dec-18 03:31N 22°04' E 113°54'0 0.0
2014-Dec-18 02:19N 22°04' E 113°54'0 0.1
2014-Dec-18 01:31N 22°04' E 113°54'0 0.1
2014-Dec-18 00:31N 22°04' E 113°54'2 2.1
2014-Dec-17 23:32N 22°05' E 113°56'1312.3
2014-Dec-17 22:29N 22°08' E 114°09'1213.2
2014-Dec-17 21:33N 22°08' E 114°23'1612.6
2014-Dec-17 20:17N 22°07' E 114°40'  
2014-Dec-13 23:23N 37°30' E 122°43'1113.4
2014-Dec-13 22:32N 37°38' E 122°35'1413.8
2014-Dec-13 21:32N 37°46' E 122°20'1413.3
2014-Dec-13 20:29N 37°50' E 122°03'1213.0
2014-Dec-13 19:33N 37°51' E 121°48'1313.0
2014-Dec-13 18:33N 37°54' E 121°32'1312.9
2014-Dec-13 17:33N 37°55' E 121°15'1413.1
2014-Dec-13 16:31N 37°58' E 120°59'1613.9
2014-Dec-13 15:22N 38°01' E 120°39'1214.1
2014-Dec-13 14:31N 38°02' E 120°24'1313.9
2014-Dec-13 13:33N 37°57' E 120°08'1211.7
2014-Dec-13 12:33N 37°45' E 120°08'9 9.2
2014-Dec-13 11:33N 37°39' E 120°17'2 1.9
2014-Dec-13 10:29N 37°39' E 120°19'0 0.0
2014-Dec-13 09:29N 37°39' E 120°19'0 0.0
2014-Dec-13 08:29N 37°39' E 120°19'0 0.0
2014-Dec-13 07:29N 37°39' E 120°19'0 0.0
2014-Dec-13 06:29N 37°39' E 120°19'0 0.0
2014-Dec-13 05:29N 37°39' E 120°19'0 0.0
2014-Dec-13 04:23N 37°39' E 120°19'0 0.0
2014-Dec-13 03:29N 37°39' E 120°19'0 0.0
2014-Dec-13 02:29N 37°39' E 120°19'0 0.0
2014-Dec-13 01:29N 37°39' E 120°19'0 0.0
2014-Dec-13 00:29N 37°39' E 120°19'0 0.0
2014-Dec-12 23:29N 37°39' E 120°19'0 0.0
2014-Dec-12 22:29N 37°39' E 120°19'0 0.0
2014-Dec-12 21:29N 37°39' E 120°19'0 0.0
2014-Dec-12 20:29N 37°39' E 120°19'0 0.0
2014-Dec-12 19:29N 37°39' E 120°19'0 0.0
2014-Dec-12 18:29N 37°39' E 120°19'0 0.0
2014-Dec-12 17:29N 37°39' E 120°19'0 0.0
2014-Dec-12 16:29N 37°39' E 120°19'0 0.0
2014-Dec-12 15:29N 37°39' E 120°19'0 0.0
2014-Dec-12 14:29N 37°39' E 120°19'0 0.0
2014-Dec-12 13:29N 37°39' E 120°19'0 0.0
2014-Dec-12 12:29N 37°39' E 120°19'0 0.0
2014-Dec-12 11:29N 37°39' E 120°19'0 0.0
2014-Dec-12 10:29N 37°39' E 120°19'0 0.0
2014-Dec-12 09:29N 37°39' E 120°19'0 0.0
2014-Dec-12 08:23N 37°39' E 120°19'0 0.0
2014-Dec-12 07:29N 37°39' E 120°19'0 0.0
2014-Dec-12 06:29N 37°39' E 120°19'0 0.0
2014-Dec-12 05:29N 37°39' E 120°19'0 0.0
2014-Dec-12 04:29N 37°39' E 120°19'0 0.0
2014-Dec-12 03:23N 37°39' E 120°19'0 0.0
2014-Dec-12 02:29N 37°39' E 120°19'0 0.0
2014-Dec-12 01:29N 37°39' E 120°19'0 0.0
2014-Dec-12 00:29N 37°39' E 120°19'0 0.0
2014-Dec-11 23:29N 37°39' E 120°19'0 0.0
2014-Dec-11 22:29N 37°39' E 120°19'0 0.0
2014-Dec-11 21:29N 37°39' E 120°19'0 0.0
2014-Dec-11 20:29N 37°39' E 120°19'0 0.0
2014-Dec-11 19:29N 37°39' E 120°19'0 0.0
2014-Dec-11 18:29N 37°39' E 120°19'0 0.0
2014-Dec-11 17:29N 37°39' E 120°19'0 0.0
2014-Dec-11 16:29N 37°39' E 120°19'0 0.0
2014-Dec-11 15:29N 37°39' E 120°19'0 0.0
2014-Dec-11 14:29N 37°39' E 120°19'0 0.0
2014-Dec-11 13:23N 37°39' E 120°19'0 0.0
2014-Dec-11 12:29N 37°39' E 120°19'0 0.0
2014-Dec-11 11:23N 37°39' E 120°19'0 0.0
2014-Dec-11 10:23N 37°39' E 120°19'0 0.0
2014-Dec-11 09:29N 37°39' E 120°19'0 0.0
2014-Dec-11 08:29N 37°39' E 120°19'0 0.0
2014-Dec-11 07:29N 37°39' E 120°19'0 0.0
2014-Dec-11 06:29N 37°39' E 120°19'0 0.0
2014-Dec-11 05:29N 37°39' E 120°19'0 0.0
2014-Dec-11 04:29N 37°39' E 120°19'0 0.0
2014-Dec-11 03:29N 37°39' E 120°19'0 0.0
2014-Dec-11 02:29N 37°39' E 120°19'0 0.0
2014-Dec-11 01:29N 37°39' E 120°19'0 0.0
2014-Dec-11 00:29N 37°39' E 120°19'0 0.0
2014-Dec-10 23:29N 37°39' E 120°19'0 0.0
2014-Dec-10 22:29N 37°39' E 120°19'0 0.0
2014-Dec-10 21:29N 37°39' E 120°19'0 0.0
2014-Dec-10 20:29N 37°39' E 120°19'0 0.0
2014-Dec-10 19:29N 37°39' E 120°19'0 0.0
2014-Dec-10 18:29N 37°39' E 120°19'0 0.0
2014-Dec-10 17:29N 37°39' E 120°19'0 0.0
2014-Dec-10 16:29N 37°39' E 120°19'  

Dump ship's entire track history